Αρχική σελίδα
METAR-TAF:

METAR-TAF

Αεροδρόμια :

Καράκας, Βενεζουέλα

γεωγραφικό πλάτος: 10-36N, γεωγραφικό μήκος: 066-59W, υψόμετρο: 43 μ

Παρών καιρός

Η αναφορά έγινε 1 ώρα και 7 λεπτά πριν, στις 03:00 UTC
Ήπιος άνεμος
Θερμοκρασία 26°C
Υγρασία 84%
Πίεση 1009 hPa
Ορατότητα 10 χλμ και άνω
Λίγα νέφη σε ύψος 1600 πόδια

METAR: SVMI 180300Z 00000KT 9999 FEW016 26/23 Q1009

Χρόνος: 00:07 (04:07 UTC)

Πρόγνωση Καιρού

Η αναφορά έγινε 6 ώρες και 7 λεπτά πριν, στις 22:00 UTC
Η πρόγνωση ισχύει από τις 18 στις 00 UTC έως τις 19 στις 00 UTC
Άνεμος 7 kt από Α
Ορατότητα 10 χλμ και άνω
Διάσπαρτα νέφη σε ύψος 1600 πόδια
Καθιστάμενος
από 18 στις 00 UTC έως τις 18 στις 06 UTC
Άνεμος kt από Β
Ορατότητα 10 χλμ και άνω
Λίγα νέφη σε ύψος 1600 πόδια
Διάσπαρτα νέφη σε ύψος 10000 πόδια

TAF: SVMI 172200Z 1800/1900 09007KT 9999 SCT016 TX30/18Z TN23/09Z BECMG 1800/1806 00000KT 9999 FEW016 SCT100

Μετεωρολογικές αναφορές και προγνώσεις για περισσότερα από 4000 αεροδρόμια (δελτία METAR και TAF).

Οι διαθέσιμοι σταθμοί απεικονίζονται στο χάρτη με κίτρινες και κόκκινες κουκκίδες.

Μετακινήστε το ποντίκι πάνω από τις κουκκίδες για να δείτε το όνομα του σταθμού.

Στη συνέχεια, κάντε κλικ για να δείτε τις μετεωρολογικές αναφορές και τις προγνώσεις καιρού.

Για να αλλάξετε το χάρτη: κάντε κλικ στα πράσινα κουμπιά με τον μαύρο σταυρό για να ζουμάρετε, στο πράσινο κουμπί με την παύλα για να αφαιρέσετε το ζουμ ή στα πράσινα βέλη για να αντιπαραβάλλετε χάρτες.


METAR-TAF: